createdAt,value
2018-02-08T00:00:58.838Z,1013.95
2018-02-08T00:01:58.802Z,1013.93
2018-02-08T00:02:58.760Z,1013.95
2018-02-08T00:03:58.757Z,1013.97
2018-02-08T00:04:58.701Z,1013.99
2018-02-08T00:05:58.675Z,1014.00
2018-02-08T00:06:58.637Z,1014.00
2018-02-08T00:07:58.606Z,1013.98
2018-02-08T00:08:58.616Z,1014.00
2018-02-08T00:09:58.550Z,1013.96
2018-02-08T00:10:58.509Z,1013.95
2018-02-08T00:11:58.479Z,1013.96
2018-02-08T00:12:58.445Z,1013.94
2018-02-08T00:13:58.430Z,1013.99
2018-02-08T00:14:58.394Z,1013.95
2018-02-08T00:15:58.352Z,1013.97
2018-02-08T00:16:58.325Z,1013.97
2018-02-08T00:17:58.304Z,1013.97
2018-02-08T00:18:58.270Z,1014.01
2018-02-08T00:19:58.235Z,1014.01
2018-02-08T00:20:58.207Z,1013.96
2018-02-08T00:21:58.168Z,1013.99
2018-02-08T00:22:58.197Z,1014.01
2018-02-08T00:23:58.106Z,1014.02
2018-02-08T00:24:58.076Z,1014.00
2018-02-08T00:25:58.042Z,1014.00
2018-02-08T00:26:58.009Z,1014.02
2018-02-08T00:27:57.973Z,1014.09
2018-02-08T00:28:57.963Z,1014.07
2018-02-08T00:29:57.911Z,1014.06
2018-02-08T00:30:57.882Z,1014.02
2018-02-08T00:31:57.851Z,1014.03
2018-02-08T00:32:57.814Z,1014.02
2018-02-08T00:33:57.796Z,1014.01
2018-02-08T00:34:57.768Z,1014.10
2018-02-08T00:35:57.719Z,1014.06
2018-02-08T00:36:57.727Z,1014.03
2018-02-08T00:37:57.658Z,1013.99
2018-02-08T00:38:57.626Z,1014.02
2018-02-08T00:39:57.597Z,1013.96
2018-02-08T00:40:57.561Z,1013.98
2018-02-08T00:41:57.556Z,1013.99
2018-02-08T00:42:57.510Z,1014.01
2018-02-08T00:43:57.482Z,1014.00
2018-02-08T00:44:57.753Z,1014.00
2018-02-08T00:45:57.407Z,1014.00
2018-02-08T00:46:57.394Z,1014.03
2018-02-08T00:47:57.387Z,1014.02
2018-02-08T00:48:57.315Z,1013.99
2018-02-08T00:49:57.310Z,1013.96
2018-02-08T00:50:57.247Z,1013.96
2018-02-08T00:51:57.223Z,1014.00
2018-02-08T00:52:57.204Z,1013.97
2018-02-08T00:53:57.155Z,1013.98
2018-02-08T00:54:57.154Z,1013.96
2018-02-08T00:55:57.110Z,1014.01
2018-02-08T00:56:57.057Z,1014.01
2018-02-08T00:57:57.028Z,1013.99
2018-02-08T00:58:56.994Z,1014.02
2018-02-08T00:59:56.969Z,1014.01
2018-02-08T01:00:56.958Z,1014.00
2018-02-08T01:01:56.918Z,1013.96
2018-02-08T01:02:56.897Z,1013.95
2018-02-08T01:03:56.861Z,1013.98
2018-02-08T01:04:56.813Z,1013.95
2018-02-08T01:05:56.788Z,1013.96
2018-02-08T01:06:56.750Z,1013.92
2018-02-08T01:07:56.745Z,1013.96
2018-02-08T01:08:56.685Z,1013.90
2018-02-08T01:09:56.664Z,1013.93
2018-02-08T01:10:56.622Z,1013.90
2018-02-08T01:11:56.583Z,1013.94
2018-02-08T01:12:56.634Z,1013.95
2018-02-08T01:13:56.616Z,1013.97
2018-02-08T01:14:56.502Z,1013.96
2018-02-08T01:15:56.480Z,1013.96
2018-02-08T01:16:56.426Z,1013.93
2018-02-08T01:17:56.411Z,1013.94
2018-02-08T01:18:56.363Z,1013.91
2018-02-08T01:19:56.331Z,1013.93
2018-02-08T01:20:56.297Z,1013.90
2018-02-08T01:21:56.302Z,1013.91
2018-02-08T01:22:56.256Z,1013.86
2018-02-08T01:23:56.197Z,1013.86
2018-02-08T01:24:56.168Z,1013.90
2018-02-08T01:25:56.138Z,1013.90
2018-02-08T01:26:56.116Z,1013.96
2018-02-08T01:27:56.091Z,1013.93
2018-02-08T01:28:56.052Z,1013.93
2018-02-08T01:29:56.028Z,1013.89
2018-02-08T01:30:55.986Z,1013.95
2018-02-08T01:31:55.944Z,1013.93
2018-02-08T01:32:55.915Z,1013.94
2018-02-08T01:33:55.879Z,1013.98
2018-02-08T01:34:55.862Z,1013.96
2018-02-08T01:35:55.818Z,1013.93
2018-02-08T01:36:55.849Z,1013.94
2018-02-08T01:37:57.312Z,1013.97
2018-02-08T01:38:55.727Z,1013.95
2018-02-08T01:39:55.688Z,1013.94
2018-02-08T01:40:55.659Z,1013.96
2018-02-08T01:41:55.636Z,1013.95
2018-02-08T01:42:57.328Z,1013.91
2018-02-08T01:43:55.610Z,1013.94
2018-02-08T01:44:55.526Z,1013.95
2018-02-08T01:45:55.500Z,1013.96
2018-02-08T01:46:57.325Z,1013.91
2018-02-08T01:47:55.437Z,1013.92
2018-02-08T01:48:55.406Z,1013.95
2018-02-08T01:49:55.371Z,1013.94
2018-02-08T01:50:55.342Z,1013.91
2018-02-08T01:51:55.308Z,1013.88
2018-02-08T01:52:55.277Z,1013.91
2018-02-08T01:53:55.245Z,1013.91
2018-02-08T01:54:55.212Z,1013.94
2018-02-08T01:55:55.181Z,1013.89
2018-02-08T01:56:55.147Z,1013.90
2018-02-08T01:57:55.116Z,1013.93
2018-02-08T01:58:55.084Z,1013.93
2018-02-08T01:59:55.053Z,1013.96
2018-02-08T02:00:55.020Z,1013.97
2018-02-08T02:01:54.988Z,1013.97
2018-02-08T02:02:54.957Z,1013.99
2018-02-08T02:03:54.923Z,1014.00
2018-02-08T02:04:54.900Z,1013.98
2018-02-08T02:05:54.859Z,1013.98
2018-02-08T02:06:54.828Z,1013.97
2018-02-08T02:07:54.795Z,1013.96
2018-02-08T02:08:54.763Z,1013.98
2018-02-08T02:09:54.731Z,1013.97
2018-02-08T02:10:54.699Z,1013.99
2018-02-08T02:11:54.669Z,1013.96
2018-02-08T02:12:54.636Z,1013.96
2018-02-08T02:13:54.603Z,1013.96
2018-02-08T02:14:54.572Z,1013.95
2018-02-08T02:15:54.538Z,1013.92
2018-02-08T02:16:54.507Z,1013.94
2018-02-08T02:17:54.474Z,1013.83
2018-02-08T02:18:54.443Z,1013.86
2018-02-08T02:19:54.411Z,1013.86
2018-02-08T02:20:54.379Z,1013.89
2018-02-08T02:21:54.347Z,1013.90
2018-02-08T02:22:54.323Z,1013.89
2018-02-08T02:23:54.291Z,1013.86
2018-02-08T02:24:54.250Z,1013.86
2018-02-08T02:25:54.213Z,1013.82
2018-02-08T02:26:54.192Z,1013.85
2018-02-08T02:27:54.146Z,1013.88
2018-02-08T02:28:54.122Z,1013.87
2018-02-08T02:29:54.088Z,1013.85
2018-02-08T02:30:54.055Z,1013.91
2018-02-08T02:31:54.028Z,1013.87
2018-02-08T02:32:54.007Z,1013.91
2018-02-08T02:33:53.964Z,1013.95
2018-02-08T02:34:53.930Z,1013.91
2018-02-08T02:35:53.903Z,1013.90
2018-02-08T02:36:53.878Z,1013.94
2018-02-08T02:37:53.840Z,1013.97
2018-02-08T02:38:53.800Z,1013.94
2018-02-08T02:39:53.768Z,1013.96
2018-02-08T02:40:53.735Z,1013.97
2018-02-08T02:41:53.700Z,1013.98
2018-02-08T02:42:53.677Z,1013.95
2018-02-08T02:50:40.940Z,1013.96
2018-02-08T02:51:05.800Z,1013.88
2018-02-08T02:52:05.770Z,1013.90
2018-02-08T02:53:05.742Z,1013.93
2018-02-08T02:54:05.709Z,1013.90
2018-02-08T02:55:05.673Z,1013.90
2018-02-08T02:56:05.643Z,1013.86
2018-02-08T02:57:05.608Z,1013.88
2018-02-08T02:58:05.586Z,1013.87
2018-02-08T02:59:05.546Z,1013.87
2018-02-08T03:00:05.519Z,1013.92
2018-02-08T03:01:05.486Z,1013.92
2018-02-08T03:02:05.449Z,1013.96
2018-02-08T03:03:05.420Z,1013.94
2018-02-08T03:04:05.384Z,1013.95
2018-02-08T03:05:05.356Z,1013.97
2018-02-08T03:06:05.322Z,1013.98
2018-02-08T03:07:05.287Z,1014.01
2018-02-08T03:08:05.259Z,1013.98
2018-02-08T03:09:05.226Z,1013.99
2018-02-08T03:10:05.199Z,1014.00
2018-02-08T03:11:05.165Z,1013.96
2018-02-08T03:12:05.131Z,1013.94
2018-02-08T03:13:05.098Z,1013.98
2018-02-08T03:14:05.065Z,1013.96
2018-02-08T03:15:05.044Z,1014.01
2018-02-08T03:25:25.929Z,1013.96
2018-02-08T03:26:23.334Z,1013.98
2018-02-08T03:27:23.302Z,1013.97
2018-02-08T03:28:23.334Z,1013.96
2018-02-08T03:29:23.265Z,1013.98
2018-02-08T03:30:23.217Z,1014.00
2018-02-08T03:31:23.196Z,1013.96
2018-02-08T03:32:23.144Z,1014.01
2018-02-08T03:33:23.111Z,1014.00
2018-02-08T03:34:23.078Z,1013.98
2018-02-08T03:35:23.136Z,1014.00
2018-02-08T03:36:23.076Z,1013.99
2018-02-08T03:37:23.005Z,1013.98
2018-02-08T03:38:22.958Z,1014.00
2018-02-08T03:39:22.973Z,1013.95
2018-02-08T03:40:22.945Z,1013.96
2018-02-08T03:41:22.924Z,1013.96
2018-02-08T03:42:22.815Z,1014.00
2018-02-08T03:43:23.094Z,1013.99
2018-02-08T03:44:22.763Z,1014.06
2018-02-08T03:45:22.990Z,1014.07
2018-02-08T03:46:22.716Z,1014.07
2018-02-08T03:47:22.684Z,1014.06
2018-02-08T03:48:22.691Z,1014.06
2018-02-08T03:49:22.594Z,1014.00
2018-02-08T03:50:22.672Z,1014.07
2018-02-08T03:51:22.689Z,1014.11
2018-02-08T03:52:22.512Z,1014.08
2018-02-08T03:53:22.511Z,1014.12
2018-02-08T03:54:22.449Z,1014.10
2018-02-08T03:55:22.397Z,1014.10
2018-02-08T03:56:22.396Z,1014.13
2018-02-08T03:57:22.331Z,1014.11
2018-02-08T03:58:22.363Z,1014.09
2018-02-08T03:59:22.290Z,1014.09
2018-02-08T04:00:22.306Z,1014.07
2018-02-08T04:01:22.259Z,1014.08
2018-02-08T04:02:22.182Z,1014.10
2018-02-08T04:03:22.336Z,1014.12
2018-02-08T04:04:22.150Z,1014.14
2018-02-08T04:05:22.085Z,1014.15
2018-02-08T04:06:22.131Z,1014.11
2018-02-08T04:07:22.008Z,1014.13
2018-02-08T04:08:21.979Z,1014.09
2018-02-08T04:09:21.970Z,1014.07
2018-02-08T04:10:21.913Z,1014.08
2018-02-08T04:11:21.948Z,1014.08
2018-02-08T04:12:21.853Z,1014.06
2018-02-08T04:13:21.846Z,1014.05
2018-02-08T04:14:21.780Z,1014.01
2018-02-08T04:15:21.753Z,1014.03
2018-02-08T04:16:21.723Z,1014.06
2018-02-08T04:17:21.732Z,1014.02
2018-02-08T04:18:21.704Z,1014.05
2018-02-08T04:19:21.665Z,1014.02
2018-02-08T04:20:21.587Z,1014.04
2018-02-08T04:21:21.619Z,1014.12
2018-02-08T04:22:21.583Z,1014.06
2018-02-08T04:23:21.583Z,1014.07
2018-02-08T04:24:21.503Z,1014.05
2018-02-08T04:25:21.431Z,1014.11
2018-02-08T04:26:21.403Z,1014.11
2018-02-08T04:27:21.417Z,1014.08
2018-02-08T04:28:21.385Z,1014.13
2018-02-08T04:29:21.333Z,1014.12
2018-02-08T04:30:21.302Z,1014.14
2018-02-08T04:31:21.253Z,1014.13
2018-02-08T04:32:21.219Z,1014.18
2018-02-08T04:33:21.220Z,1014.16
2018-02-08T04:34:21.146Z,1014.16
2018-02-08T04:35:21.232Z,1014.16
2018-02-08T04:36:21.066Z,1014.17
2018-02-08T04:37:21.331Z,1014.13
2018-02-08T04:38:21.068Z,1014.15
2018-02-08T04:39:20.969Z,1014.20
2018-02-08T04:40:20.973Z,1014.15
2018-02-08T04:41:20.999Z,1014.17
2018-02-08T04:42:20.918Z,1014.19
2018-02-08T04:43:20.853Z,1014.13
2018-02-08T04:44:20.807Z,1014.15
2018-02-08T04:45:20.834Z,1014.15
2018-02-08T04:46:20.794Z,1014.10
2018-02-08T04:47:20.732Z,1014.10
2018-02-08T04:48:20.788Z,1014.10
2018-02-08T04:49:20.658Z,1014.10
2018-02-08T04:50:20.613Z,1014.09
2018-02-08T04:51:20.595Z,1014.03
2018-02-08T04:52:20.631Z,1014.02
2018-02-08T04:53:20.533Z,1014.06
2018-02-08T04:54:20.520Z,1014.06
2018-02-08T04:55:20.468Z,1014.09
2018-02-08T04:56:20.433Z,1014.08
2018-02-08T04:57:20.422Z,1014.13
2018-02-08T04:58:20.382Z,1014.08
2018-02-08T04:59:20.340Z,1014.14
2018-02-08T05:00:20.324Z,1014.08
2018-02-08T05:01:20.302Z,1014.09
2018-02-08T05:02:20.221Z,1014.07
2018-02-08T05:03:20.199Z,1014.09
2018-02-08T05:04:20.172Z,1014.10
2018-02-08T05:05:20.162Z,1014.08
2018-02-08T05:06:20.120Z,1014.06
2018-02-08T05:07:20.108Z,1014.05
2018-02-08T05:08:20.042Z,1014.00
2018-02-08T05:09:20.008Z,1014.08
2018-02-08T05:10:19.969Z,1014.08
2018-02-08T05:11:19.943Z,1014.07
2018-02-08T05:12:19.915Z,1014.08
2018-02-08T05:13:19.865Z,1014.04
2018-02-08T05:14:19.864Z,1014.04
2018-02-08T05:15:19.813Z,1014.07
2018-02-08T05:16:19.812Z,1014.08
2018-02-08T05:17:19.741Z,1014.06
2018-02-08T05:18:19.721Z,1014.11
2018-02-08T05:19:19.716Z,1014.10
2018-02-08T05:20:19.660Z,1014.14
2018-02-08T05:21:19.682Z,1014.13
2018-02-08T05:22:19.585Z,1014.15
2018-02-08T05:23:19.555Z,1014.15
2018-02-08T05:24:19.634Z,1014.15
2018-02-08T05:25:19.488Z,1014.18
2018-02-08T05:26:19.515Z,1014.18
2018-02-08T05:27:19.410Z,1014.14
2018-02-08T05:28:19.378Z,1014.13
2018-02-08T05:29:19.346Z,1014.14
2018-02-08T05:30:19.325Z,1014.18
2018-02-08T05:31:19.282Z,1014.19
2018-02-08T05:32:19.250Z,1014.17
2018-02-08T05:33:19.229Z,1014.20
2018-02-08T05:34:19.194Z,1014.21
2018-02-08T05:35:19.149Z,1014.21
2018-02-08T05:36:19.118Z,1014.21
2018-02-08T05:37:19.084Z,1014.24
2018-02-08T05:38:19.064Z,1014.24
2018-02-08T05:39:19.024Z,1014.25
2018-02-08T05:40:19.012Z,1014.25
2018-02-08T05:41:18.957Z,1014.26
2018-02-08T05:42:18.924Z,1014.22
2018-02-08T05:43:18.891Z,1014.22
2018-02-08T05:44:18.865Z,1014.27
2018-02-08T05:45:18.886Z,1014.24
2018-02-08T05:46:18.792Z,1014.25
2018-02-08T05:47:18.760Z,1014.24
2018-02-08T05:48:18.740Z,1014.24
2018-02-08T05:49:18.706Z,1014.23
2018-02-08T05:50:18.659Z,1014.24
2018-02-08T05:51:18.647Z,1014.25
2018-02-08T05:52:18.607Z,1014.31
2018-02-08T05:53:18.574Z,1014.28
2018-02-08T05:54:18.531Z,1014.35
2018-02-08T05:55:18.508Z,1014.34
2018-02-08T05:56:18.467Z,1014.34
2018-02-08T05:57:18.445Z,1014.34
2018-02-08T05:58:18.398Z,1014.32
2018-02-08T05:59:18.378Z,1014.35
2018-02-08T06:00:18.338Z,1014.37
2018-02-08T06:01:18.313Z,1014.31
2018-02-08T06:02:18.270Z,1014.41
2018-02-08T06:03:18.248Z,1014.35
2018-02-08T06:04:18.204Z,1014.37
2018-02-08T06:05:18.187Z,1014.38
2018-02-08T06:06:18.136Z,1014.40
2018-02-08T06:07:18.116Z,1014.37
2018-02-08T06:08:18.084Z,1014.37
2018-02-08T06:09:18.040Z,1014.37
2018-02-08T06:10:18.007Z,1014.39
2018-02-08T06:11:17.973Z,1014.38
2018-02-08T06:12:17.953Z,1014.37
2018-02-08T06:13:17.921Z,1014.37
2018-02-08T06:14:17.875Z,1014.40
2018-02-08T06:15:17.845Z,1014.42
2018-02-08T06:16:17.826Z,1014.41
2018-02-08T06:17:17.778Z,1014.41
2018-02-08T06:18:17.746Z,1014.42
2018-02-08T06:19:17.724Z,1014.45
2018-02-08T06:20:17.680Z,1014.46
2018-02-08T06:21:17.660Z,1014.49
2018-02-08T06:22:17.614Z,1014.45
2018-02-08T06:23:17.583Z,1014.49
2018-02-08T06:24:17.559Z,1014.45
2018-02-08T06:25:17.529Z,1014.44
2018-02-08T06:26:17.495Z,1014.48
2018-02-08T06:27:17.452Z,1014.47
2018-02-08T06:28:17.417Z,1014.48
2018-02-08T06:29:17.972Z,1014.47
2018-02-08T06:30:17.364Z,1014.47
2018-02-08T06:31:17.321Z,1014.44
2018-02-08T06:32:17.287Z,1014.50
2018-02-08T06:33:17.257Z,1014.50
2018-02-08T06:34:17.222Z,1014.48
2018-02-08T06:35:17.188Z,1014.54
2018-02-08T06:36:17.167Z,1014.52
2018-02-08T06:37:17.129Z,1014.53
2018-02-08T06:38:17.102Z,1014.55
2018-02-08T06:39:17.059Z,1014.58
2018-02-08T06:40:17.025Z,1014.55
2018-02-08T06:41:16.992Z,1014.58
2018-02-08T06:42:16.960Z,1014.52
2018-02-08T06:43:16.926Z,1014.50
2018-02-08T06:44:16.894Z,1014.57
2018-02-08T06:45:16.875Z,1014.47
2018-02-08T06:46:16.841Z,1014.54
2018-02-08T06:47:16.808Z,1014.56
2018-02-08T06:48:16.776Z,1014.54
2018-02-08T06:49:16.731Z,1014.56
2018-02-08T06:50:16.710Z,1014.59
2018-02-08T06:51:16.678Z,1014.65
2018-02-08T06:52:16.645Z,1014.65
2018-02-08T06:53:16.613Z,1014.64
2018-02-08T06:54:16.579Z,1014.64
2018-02-08T06:55:16.534Z,1014.63
2018-02-08T06:56:16.514Z,1014.65
2018-02-08T06:57:16.471Z,1014.61
2018-02-08T06:58:16.495Z,1014.63
2018-02-08T06:59:16.406Z,1014.65
2018-02-08T07:00:16.370Z,1014.71
2018-02-08T07:01:16.339Z,1014.71
2018-02-08T07:02:16.306Z,1014.73
2018-02-08T07:03:16.285Z,1014.68
2018-02-08T07:04:16.242Z,1014.68
2018-02-08T07:05:16.207Z,1014.73
2018-02-08T07:06:16.174Z,1014.71
2018-02-08T07:07:16.158Z,1014.74
2018-02-08T07:08:16.110Z,1014.71
2018-02-08T07:09:16.079Z,1014.72
2018-02-08T07:10:16.045Z,1014.76
2018-02-08T07:11:16.026Z,1014.74
2018-02-08T07:12:15.983Z,1014.75
2018-02-08T07:13:15.960Z,1014.77
2018-02-08T07:14:15.916Z,1014.77
2018-02-08T07:15:15.883Z,1014.81
2018-02-08T07:16:15.860Z,1014.86
2018-02-08T07:17:15.830Z,1014.87
2018-02-08T07:18:15.794Z,1014.90
2018-02-08T07:19:15.751Z,1014.93
2018-02-08T07:20:15.720Z,1014.88
2018-02-08T07:21:15.686Z,1014.89
2018-02-08T07:22:15.654Z,1014.94
2018-02-08T07:23:15.621Z,1014.94
2018-02-08T07:24:15.601Z,1014.92
2018-02-08T07:25:15.557Z,1014.91
2018-02-08T07:26:15.522Z,1014.99
2018-02-08T07:27:15.492Z,1014.99
2018-02-08T07:28:15.472Z,1015.01
2018-02-08T07:29:15.448Z,1015.01
2018-02-08T07:30:15.395Z,1015.06
2018-02-08T07:31:15.363Z,1015.06
2018-02-08T07:32:15.331Z,1015.08
2018-02-08T07:33:15.298Z,1015.06
2018-02-08T07:34:15.277Z,1015.07
2018-02-08T07:35:15.232Z,1015.06
2018-02-08T07:36:15.218Z,1015.05
2018-02-08T07:37:15.168Z,1015.06
2018-02-08T07:38:15.148Z,1015.04
2018-02-08T07:39:15.104Z,1015.13
2018-02-08T07:40:15.074Z,1015.14
2018-02-08T07:41:15.040Z,1015.16
2018-02-08T07:42:15.020Z,1015.12
2018-02-08T07:43:14.976Z,1015.09
2018-02-08T07:44:14.943Z,1015.14
2018-02-08T07:45:14.911Z,1015.13
2018-02-08T07:46:14.880Z,1015.10
2018-02-08T07:47:14.854Z,1015.16
2018-02-08T07:48:14.816Z,1015.15
2018-02-08T07:49:14.782Z,1015.20
2018-02-08T07:50:14.761Z,1015.21
2018-02-08T07:51:14.730Z,1015.19
2018-02-08T07:52:14.688Z,1015.24
2018-02-08T07:53:14.653Z,1015.26
2018-02-08T07:54:14.634Z,1015.23
2018-02-08T07:55:14.590Z,1015.28
2018-02-08T07:56:14.570Z,1015.29
2018-02-08T07:57:14.539Z,1015.26
2018-02-08T07:58:14.495Z,1015.25
2018-02-08T07:59:14.474Z,1015.26
2018-02-08T08:00:14.448Z,1015.28
2018-02-08T08:01:14.400Z,1015.29
2018-02-08T08:02:14.367Z,1015.28
2018-02-08T08:03:14.335Z,1015.33
2018-02-08T08:04:14.304Z,1015.31
2018-02-08T08:05:14.272Z,1015.35
2018-02-08T08:06:14.241Z,1015.36
2018-02-08T08:07:14.222Z,1015.36
2018-02-08T08:08:14.177Z,1015.37
2018-02-08T08:09:14.148Z,1015.37
2018-02-08T08:10:14.126Z,1015.37
2018-02-08T08:11:14.082Z,1015.42
2018-02-08T08:12:14.053Z,1015.37
2018-02-08T08:13:14.035Z,1015.43
2018-02-08T08:14:13.989Z,1015.43
2018-02-08T08:15:13.970Z,1015.44
2018-02-08T08:16:13.926Z,1015.47
2018-02-08T08:17:13.894Z,1015.46
2018-02-08T08:18:13.865Z,1015.49
2018-02-08T08:19:13.832Z,1015.49
2018-02-08T08:20:13.816Z,1015.49
2018-02-08T08:21:13.773Z,1015.51
2018-02-08T08:22:13.740Z,1015.52
2018-02-08T08:23:13.720Z,1015.56
2018-02-08T08:24:13.688Z,1015.54
2018-02-08T08:25:13.658Z,1015.53
2018-02-08T08:26:13.613Z,1015.54
2018-02-08T08:27:13.583Z,1015.51
2018-02-08T08:28:13.554Z,1015.54
2018-02-08T08:29:13.523Z,1015.56
2018-02-08T08:30:13.503Z,1015.56
2018-02-08T08:31:13.473Z,1015.57
2018-02-08T08:32:13.431Z,1015.60
2018-02-08T08:33:13.411Z,1015.58
2018-02-08T08:34:13.394Z,1015.58
2018-02-08T08:35:13.337Z,1015.59
2018-02-08T08:36:13.363Z,1015.58
2018-02-08T08:37:13.291Z,1015.60
2018-02-08T08:38:13.257Z,1015.60
2018-02-08T08:39:13.228Z,1015.58
2018-02-08T08:40:13.203Z,1015.56
2018-02-08T08:41:13.168Z,1015.59
2018-02-08T08:42:13.127Z,1015.63
2018-02-08T08:43:13.097Z,1015.59
2018-02-08T08:44:13.069Z,1015.59
2018-02-08T08:45:13.036Z,1015.60
2018-02-08T08:46:13.004Z,1015.62
2018-02-08T08:47:12.988Z,1015.64
2018-02-08T08:48:13.284Z,1015.60
2018-02-08T08:49:12.929Z,1015.58
2018-02-08T08:50:12.888Z,1015.60
2018-02-08T08:51:12.870Z,1015.56
2018-02-08T08:52:12.838Z,1015.54
2018-02-08T08:53:12.812Z,1015.52
2018-02-08T08:54:12.765Z,1015.50
2018-02-08T08:55:12.748Z,1015.51
2018-02-08T08:56:12.718Z,1015.55
2018-02-08T08:57:12.686Z,1015.54
2018-02-08T08:58:12.645Z,1015.55
2018-02-08T08:59:12.630Z,1015.63
2018-02-08T09:00:12.599Z,1015.62
2018-02-08T09:01:12.556Z,1015.65
2018-02-08T09:02:12.528Z,1015.65
2018-02-08T09:03:12.498Z,1015.61
2018-02-08T09:04:12.468Z,1015.64
2018-02-08T09:05:12.451Z,1015.57
2018-02-08T09:06:12.442Z,1015.62
2018-02-08T09:07:12.380Z,1015.60
2018-02-08T09:08:12.349Z,1015.64
2018-02-08T09:09:12.331Z,1015.66
2018-02-08T09:10:12.301Z,1015.72
2018-02-08T09:11:12.272Z,1015.70
2018-02-08T09:12:12.241Z,1015.69
2018-02-08T09:13:12.212Z,1015.75
2018-02-08T09:14:12.172Z,1015.72
2018-02-08T09:15:12.152Z,1015.70
2018-02-08T09:16:12.123Z,1015.73
2018-02-08T09:17:12.098Z,1015.74
2018-02-08T09:18:12.052Z,1015.78
2018-02-08T09:19:12.021Z,1015.75
2018-02-08T09:20:11.991Z,1015.75
2018-02-08T09:21:11.963Z,1015.80
2018-02-08T09:22:11.933Z,1015.75
2018-02-08T09:23:11.918Z,1015.76
2018-02-08T09:24:11.885Z,1015.78
2018-02-08T09:25:11.843Z,1015.77
2018-02-08T09:26:11.824Z,1015.77
2018-02-08T09:27:11.802Z,1015.81
2018-02-08T09:28:11.752Z,1015.81
2018-02-08T09:29:11.723Z,1015.79
2018-02-08T09:30:11.693Z,1015.79
2018-02-08T09:31:11.675Z,1015.79
2018-02-08T09:32:11.634Z,1015.81
2018-02-08T09:33:11.606Z,1015.79
2018-02-08T09:34:11.587Z,1015.84
2018-02-08T09:35:11.547Z,1015.81
2018-02-08T09:36:11.515Z,1015.83
2018-02-08T09:37:11.487Z,1015.85
2018-02-08T09:38:11.468Z,1015.78
2018-02-08T09:39:11.426Z,1015.77
2018-02-08T09:40:11.395Z,1015.75
2018-02-08T09:41:11.366Z,1015.75
2018-02-08T09:42:11.344Z,1015.76
2018-02-08T09:43:11.307Z,1015.75
2018-02-08T09:44:11.276Z,1015.76
2018-02-08T09:45:11.247Z,1015.79
2018-02-08T09:46:11.217Z,1015.76
2018-02-08T09:47:11.199Z,1015.79
2018-02-08T09:48:11.174Z,1015.83
2018-02-08T09:49:11.131Z,1015.84
2018-02-08T09:50:11.100Z,1015.88
2018-02-08T09:51:11.082Z,1015.95
2018-02-08T09:52:11.052Z,1015.96
2018-02-08T09:53:11.013Z,1015.94
2018-02-08T09:54:10.982Z,1015.98
2018-02-08T09:55:10.963Z,1016.03
2018-02-08T09:56:10.924Z,1016.03
2018-02-08T09:57:10.895Z,1016.05
2018-02-08T09:58:10.877Z,1016.08
2018-02-08T09:59:10.849Z,1016.05
2018-02-08T10:00:10.807Z,1016.07
2018-02-08T10:01:10.781Z,1016.02
2018-02-08T10:02:10.749Z,1016.03
2018-02-08T10:03:10.735Z,1016.02
2018-02-08T10:04:10.708Z,1016.06
2018-02-08T10:05:10.668Z,1016.05
2018-02-08T10:06:10.650Z,1016.07
2018-02-08T10:07:10.612Z,1016.06
2018-02-08T10:08:10.584Z,1016.03
2018-02-08T10:09:10.569Z,1016.07
2018-02-08T10:10:10.530Z,1016.09
2018-02-08T10:11:10.502Z,1016.04
2018-02-08T10:12:10.489Z,1016.04
2018-02-08T10:13:10.449Z,1016.04
2018-02-08T10:14:10.485Z,1015.97
2018-02-08T10:15:10.397Z,1015.99
2018-02-08T10:16:10.382Z,1016.04
2018-02-08T10:17:10.345Z,1016.07
2018-02-08T10:18:10.321Z,1016.08
2018-02-08T10:19:10.305Z,1016.10
2018-02-08T10:20:10.272Z,1016.08
2018-02-08T10:21:10.254Z,1016.14
2018-02-08T10:22:10.230Z,1016.16
2018-02-08T10:23:10.191Z,1016.18
2018-02-08T10:24:10.170Z,1016.16
2018-02-08T10:25:10.144Z,1016.16
2018-02-08T10:26:10.130Z,1016.16
2018-02-08T10:27:10.098Z,1016.15
2018-02-08T10:28:10.070Z,1016.10
2018-02-08T10:29:10.046Z,1016.17
2018-02-08T10:30:10.022Z,1016.18
2018-02-08T10:31:10.005Z,1016.15
2018-02-08T10:32:09.976Z,1016.16
2018-02-08T10:33:09.950Z,1016.20
2018-02-08T10:34:09.929Z,1016.18
2018-02-08T10:35:09.905Z,1016.17
2018-02-08T10:36:09.885Z,1016.21
2018-02-08T10:37:09.860Z,1016.24
2018-02-08T10:38:09.836Z,1016.27
2018-02-08T10:39:09.826Z,1016.32
2018-02-08T10:40:09.791Z,1016.34
2018-02-08T10:41:09.769Z,1016.29
2018-02-08T10:42:09.746Z,1016.29
2018-02-08T10:43:09.722Z,1016.29
2018-02-08T10:44:09.713Z,1016.30
2018-02-08T10:45:09.678Z,1016.30
2018-02-08T10:46:09.668Z,1016.25
2018-02-08T10:47:09.636Z,1016.31
2018-02-08T10:48:09.612Z,1016.30
2018-02-08T10:49:09.593Z,1016.22
2018-02-08T10:50:09.582Z,1016.24
2018-02-08T10:51:09.560Z,1016.23
2018-02-08T10:52:09.530Z,1016.26
2018-02-08T10:53:09.508Z,1016.29
2018-02-08T10:54:09.484Z,1016.33
2018-02-08T10:55:09.472Z,1016.36
2018-02-08T10:56:09.446Z,1016.33
2018-02-08T10:57:09.527Z,1016.30
2018-02-08T10:58:09.433Z,1016.32
2018-02-08T10:59:09.394Z,1016.31
2018-02-08T11:00:09.373Z,1016.37
2018-02-08T11:01:09.344Z,1016.39
2018-02-08T11:02:09.320Z,1016.45
2018-02-08T11:03:09.302Z,1016.44
2018-02-08T11:04:09.284Z,1016.41
2018-02-08T11:05:09.274Z,1016.39
2018-02-08T11:06:09.254Z,1016.38
2018-02-08T11:07:09.222Z,1016.31
2018-02-08T11:08:09.205Z,1016.31
2018-02-08T11:09:09.197Z,1016.31
2018-02-08T11:10:09.165Z,1016.34
2018-02-08T11:11:09.147Z,1016.29
2018-02-08T11:12:09.128Z,1016.26
2018-02-08T11:13:09.110Z,1016.29
2018-02-08T11:14:09.103Z,1016.27
2018-02-08T11:15:09.072Z,1016.20
2018-02-08T11:16:09.069Z,1016.24
2018-02-08T11:17:09.034Z,1016.19
2018-02-08T11:18:09.017Z,1016.12
2018-02-08T11:19:09.008Z,1016.15
2018-02-08T11:20:08.992Z,1016.19
2018-02-08T11:21:08.961Z,1016.22
2018-02-08T11:22:08.956Z,1016.22
2018-02-08T11:23:08.938Z,1016.24
2018-02-08T11:24:08.913Z,1016.23
2018-02-08T11:25:08.903Z,1016.20
2018-02-08T11:26:08.885Z,1016.22
2018-02-08T11:27:08.859Z,1016.16
2018-02-08T11:28:08.840Z,1016.17
2018-02-08T11:29:08.833Z,1016.13
2018-02-08T11:30:08.846Z,1016.14
2018-02-08T11:31:08.798Z,1016.13
2018-02-08T11:32:08.781Z,1016.17
2018-02-08T11:33:08.763Z,1016.11
2018-02-08T11:34:08.747Z,1016.12
2018-02-08T11:35:08.719Z,1016.11
2018-02-08T11:36:08.701Z,1016.14
2018-02-08T11:37:08.685Z,1016.09
2018-02-08T11:38:08.667Z,1016.14
2018-02-08T11:39:08.650Z,1016.09
2018-02-08T11:40:08.645Z,1016.08
2018-02-08T11:41:08.628Z,1016.15
2018-02-08T11:42:08.621Z,1016.13
2018-02-08T11:43:08.595Z,1016.15
2018-02-08T11:44:08.566Z,1016.16
2018-02-08T11:45:08.563Z,1016.16
2018-02-08T11:46:08.544Z,1016.13
2018-02-08T11:47:08.528Z,1016.13
2018-02-08T11:48:08.511Z,1016.16
2018-02-08T11:49:08.481Z,1016.13
2018-02-08T11:50:08.466Z,1016.11
2018-02-08T11:51:08.461Z,1016.10
2018-02-08T11:52:08.442Z,1016.09
2018-02-08T11:53:08.422Z,1016.06
2018-02-08T11:54:08.396Z,1016.10
2018-02-08T11:55:08.383Z,1016.11
2018-02-08T11:56:08.376Z,1016.10
2018-02-08T11:57:08.359Z,1016.05
2018-02-08T11:58:08.331Z,1016.04
2018-02-08T11:59:08.314Z,1016.04
2018-02-08T12:00:08.297Z,1016.02
2018-02-08T12:01:08.281Z,1015.99
2018-02-08T12:02:08.274Z,1016.02
2018-02-08T12:03:08.247Z,1015.99
2018-02-08T12:04:08.233Z,1016.01
2018-02-08T12:05:08.213Z,1016.05
2018-02-08T12:06:08.215Z,1015.96
2018-02-08T12:07:08.182Z,1015.95
2018-02-08T12:08:08.177Z,1015.90
2018-02-08T12:09:08.149Z,1015.85
2018-02-08T12:10:08.144Z,1015.84
2018-02-08T12:11:08.129Z,1015.86
2018-02-08T12:12:08.134Z,1015.86
2018-02-08T12:13:08.086Z,1015.88
2018-02-08T12:14:08.072Z,1015.86
2018-02-08T12:15:08.057Z,1015.84
2018-02-08T12:16:08.053Z,1015.85
2018-02-08T12:17:08.029Z,1015.82
2018-02-08T12:18:08.021Z,1015.82
2018-02-08T12:19:07.995Z,1015.78
2018-02-08T12:20:07.980Z,1015.76
2018-02-08T12:21:07.969Z,1015.77